Nearby METAR Reports

 

KTTN - Trenton, New Jersey, USA
Distance from station: WNW 11mi, 17km
Updated: Sun, 19-May-2024 6:29am EDT
Mist, Overcast
Mist, Overcast
 Wind from NNW
Wind: NNW 5 mph, 7 km/h
Temperature: 59°F, 15°C
Dew Point: 57°F, 14°C
Humidity: 94%
Barometer: 29.98 inHg, 1015.2 hPa
Summary: Mist
Clouds: Overcast
Visibility: 3 miles, 5 km
Cloud details: Overcast 4200 ft
2024/05/19 10:29 KTTN 191029Z 34004KT 3SM BR OVC042 15/14 A2998 RMK AO2 T01500144
KWRI - Wrightst/Mcguire, New Jersey, USA
Distance from station: SSE 14mi, 22km
Updated: Sat, 18-May-2024 11:05pm EDT
NOT Current
Overcast
Overcast
 Wind from calm
Wind: Calm
Temperature: 59°F, 15°C
Dew Point: 57°F, 14°C
Humidity: 94%
Barometer: 29.97 inHg, 1014.9 hPa
Clouds: Overcast
Visibility: 10 miles, 16 km
Cloud details: Overcast 900 ft
2024/05/19 03:05 KWRI 190305Z 00000KT 10SM OVC009 15/14 A2997 RMK AO2A SLP148
 
KNEL - Lakehurst Nas, New Jersey, USA
Distance from station: SE 21mi, 34km
Updated: Sun, 19-May-2024 6:00am EDT
Overcast
Overcast
 Wind from calm
Wind: Calm
Temperature: 59°F, 15°C
Dew Point: 57°F, 14°C
Humidity: 94%
Barometer: 29.97 inHg, 1014.9 hPa
Clouds: Overcast
Cloud details: Overcast 1600 ft
2024/05/19 10:00 KNEL 191000Z AUTO 00000KT OVC016 15/14 A2997 RMK AO2 SLP145 T01500144 $
KPNE - Philadelphia/Ne, Pennsylvania, USA
Distance from station: WSW 22mi, 35km
Updated: Sun, 19-May-2024 5:54am EDT
Mist, Overcast
Mist, Overcast
 Wind from NNW
Wind: NNW 5 mph, 7 km/h
Temperature: 61°F, 16°C
Dew Point: 57°F, 14°C
Humidity: 88%
Barometer: 29.99 inHg, 1015.6 hPa
Summary: Mist
Clouds: Overcast
Visibility: 5 miles, 8 km
Cloud details: Overcast 4300 ft
2024/05/19 09:54 KPNE 190954Z 34004KT 5SM BR OVC043 16/14 A2999 RMK AO2 SLP156 T01610144
 
KVAY - Mount Holly, New Jersey, USA
Distance from station: SSW 22mi, 35km
Updated: Sun, 19-May-2024 6:31am EDT
Mist, Overcast
Mist, Overcast
 Wind from calm
Wind: Calm
Temperature: 61°F, 16°C
Dew Point: 59°F, 15°C
Humidity: 94%
Barometer: 29.98 inHg, 1015.2 hPa
Summary: Mist
Clouds: Overcast
Visibility: 2 miles, 3 km
Cloud details: Few Clouds 500 ft
Overcast 3700 ft
2024/05/19 10:31 KVAY 191031Z AUTO 00000KT 2SM BR FEW005 OVC037 16/15 A2998 RMK AO2 T01560150
KDYL - Doylestown, Pennsylvania, USA
Distance from station: WNW 27mi, 43km
Updated: Sun, 19-May-2024 6:09am EDT

 
Temperature: 61°F, 16°C
Dew Point: 61°F, 16°C
Humidity: 100%
Barometer: 29.99 inHg, 1015.6 hPa
2024/05/19 10:09 KDYL 191009Z AUTO 16/16 A2999 RMK AO2 T01610156 PWINO $